Butterfly — C6UP2 — position and weather

sailwx.info

Track history (hours):
 
Tides and Currents Weather Stations Pressure Air Temp Water Temp Dewpoint Dewpoint Depression Visibility Wind Speed Wind Dir Waves Ship Positions

Butterfly

Last reported at 2017-Apr-23 09:19 UTC. Time now 2017-Apr-25 10:42 UTC.
Position N 28°44' W 014°32'.

Length 182 m; draft 7.3 m.

Type: Ship. MMSI: 311985000.

Date/timePositionNaut miles runAvg speedWind from/ knotsBaromVisibWave heightAir tempDewpointWater temp
2017-Apr-23 09:19N 28°44' W 014°32'512.3
2017-Apr-23 08:56N 28°40' W 014°35'512.3
2017-Apr-23 08:30N 28°35' W 014°38'612.1
2017-Apr-23 08:00N 28°30' W 014°42'612.1
2017-Apr-23 07:30N 28°25' W 014°46'611.7
2017-Apr-23 07:00N 28°20' W 014°50'612.0
2017-Apr-23 06:30N 28°15' W 014°52'612.3
2017-Apr-23 06:00N 28°09' W 014°54'612.1
2017-Apr-23 05:30N 28°03' W 014°57'612.0
2017-Apr-23 05:00N 27°58' W 014°59'612.0
2017-Apr-23 04:30N 27°52' W 015°01'611.7
2017-Apr-23 04:01N 27°46' W 015°03'611.3
2017-Apr-23 03:30N 27°41' W 015°05'611.6
2017-Apr-23 03:01N 27°35' W 015°06'611.8
2017-Apr-23 02:30N 27°30' W 015°08'611.6
2017-Apr-23 01:59N 27°24' W 015°10'  
2017-Apr-20 01:21N 13°14' W 017°60'16812.5
2017-Apr-19 11:51N 10°26' W 017°56'512.8
2017-Apr-19 11:29N 10°22' W 017°54'612.7
2017-Apr-19 11:00N 10°17' W 017°50'712.8
2017-Apr-19 10:26N 10°12' W 017°45'613.1
2017-Apr-19 09:59N 10°07' W 017°41'813.0
2017-Apr-19 09:20N 10°01' W 017°36'612.9
2017-Apr-19 08:52N 09°56' W 017°32'2312.8
2017-Apr-19 07:05N 09°38' W 017°17'412.5
2017-Apr-19 06:44N 09°35' W 017°15'312.6
2017-Apr-19 06:28N 09°32' W 017°12'612.6
2017-Apr-19 06:00N 09°28' W 017°08'612.5
2017-Apr-19 05:31N 09°23' W 017°04'612.3
2017-Apr-19 05:00N 09°18' W 017°01'612.4
2017-Apr-19 04:31N 09°13' W 016°57'612.5
2017-Apr-19 04:01N 09°08' W 016°53'612.7
2017-Apr-19 03:31N 09°03' W 016°49'612.7
2017-Apr-19 03:00N 08°58' W 016°45'612.9
2017-Apr-19 02:31N 08°53' W 016°41'712.6
2017-Apr-19 01:58N 08°48' W 016°36'812.6
2017-Apr-19 01:22N 08°42' W 016°32'612.8
2017-Apr-19 00:56N 08°38' W 016°28'512.8
2017-Apr-19 00:31N 08°34' W 016°25'612.7
2017-Apr-19 00:01N 08°29' W 016°21'612.7
2017-Apr-18 23:30N 08°24' W 016°17'712.6
2017-Apr-18 22:57N 08°18' W 016°12'512.6
2017-Apr-18 22:30N 08°14' W 016°09'612.6
2017-Apr-18 22:00N 08°09' W 016°05'612.6
2017-Apr-18 21:30N 08°04' W 016°01'712.5
2017-Apr-18 20:59N 07°59' W 015°56'612.6
2017-Apr-18 20:31N 07°54' W 015°53'612.7
2017-Apr-18 20:00N 07°50' W 015°48'612.9
2017-Apr-18 19:31N 07°45' W 015°44'612.9
2017-Apr-18 19:00N 07°40' W 015°40'612.4
2017-Apr-18 18:31N 07°35' W 015°36'612.5
2017-Apr-18 18:00N 07°30' W 015°32'612.2
2017-Apr-18 17:29N 07°25' W 015°28'1112.5
2017-Apr-18 16:36N 07°16' W 015°21'312.2
2017-Apr-18 16:19N 07°14' W 015°19'412.3
2017-Apr-18 16:00N 07°11' W 015°17'612.3
2017-Apr-18 15:30N 07°06' W 015°13'612.1
2017-Apr-18 15:00N 07°01' W 015°09'612.1
2017-Apr-18 14:31N 06°56' W 015°05'1212.2
2017-Apr-18 13:30N 06°48' W 014°56'1312.2
2017-Apr-18 12:26N 06°41' W 014°45'1512.5
2017-Apr-18 11:14N 06°33' W 014°33'612.5
2017-Apr-18 10:45N 06°29' W 014°28'4112.5
2017-Apr-18 07:30N 06°07' W 013°53'  
2017-Apr-15 23:06N 05°11' W 004°01'111.8
2017-Apr-15 23:00N 05°12' W 003°60'3 5.7
2017-Apr-15 22:30N 05°15' W 003°60'2 4.8
2017-Apr-15 22:00N 05°16' W 004°02'1 1.9
2017-Apr-15 21:30N 05°16' W 004°01'0 0.0
2017-Apr-15 19:51N 05°16' W 004°01'0 0.0
2017-Apr-15 19:15N 05°16' W 004°01'0 0.0
2017-Apr-15 18:51N 05°16' W 004°01'0 0.0
2017-Apr-15 17:18N 05°16' W 004°01'0 0.0
2017-Apr-15 15:18N 05°16' W 004°01'0 0.0
2017-Apr-15 14:36N 05°16' W 004°01'0 0.0
2017-Apr-15 14:24N 05°16' W 004°01'0 0.0
2017-Apr-15 12:33N 05°16' W 004°01'0 0.0
2017-Apr-15 12:18N 05°16' W 004°01'0 0.0
2017-Apr-15 12:00N 05°16' W 004°01'0 0.0
2017-Apr-15 11:18N 05°16' W 004°01'0 0.0
2017-Apr-15 10:54N 05°16' W 004°01'0 0.0
2017-Apr-15 10:12N 05°16' W 004°01'0 0.0
2017-Apr-15 07:54N 05°16' W 004°01'0 0.0
2017-Apr-15 07:24N 05°16' W 004°01'0 0.0
2017-Apr-15 07:00N 05°16' W 004°01'0 0.0
2017-Apr-15 06:18N 05°16' W 004°01'0 0.0
2017-Apr-15 06:00N 05°16' W 004°01'0 0.0
2017-Apr-15 03:30N 05°16' W 004°01'0 0.0
2017-Apr-15 01:06N 05°16' W 004°01'0 0.0
2017-Apr-15 01:00N 05°16' W 004°01'0 0.0
2017-Apr-15 00:24N 05°16' W 004°01'0 0.0
2017-Apr-14 23:42N 05°16' W 004°01'0 0.0
2017-Apr-14 22:42N 05°16' W 004°01'0 0.0
2017-Apr-14 22:18N 05°16' W 004°01'0 0.0
2017-Apr-14 21:48N 05°16' W 004°01'0 0.0
2017-Apr-14 21:18N 05°16' W 004°01'0 0.0
2017-Apr-14 20:24N 05°16' W 004°01'0 0.0
2017-Apr-14 20:00N 05°16' W 004°01'0 0.0
2017-Apr-14 19:24N 05°16' W 004°01'0 0.0
2017-Apr-14 16:24N 05°16' W 004°01'0 0.0
2017-Apr-14 16:00N 05°16' W 004°01'0 0.0
2017-Apr-14 15:24N 05°16' W 004°01'0 0.0
2017-Apr-14 15:00N 05°16' W 004°01'0 0.0
2017-Apr-14 14:09N 05°16' W 004°01'0 0.0
2017-Apr-14 07:57N 05°16' W 004°01'0 0.0
2017-Apr-14 07:03N 05°16' W 004°01'0 0.0
2017-Apr-14 06:45N 05°16' W 004°01'0 0.0
2017-Apr-14 04:33N 05°16' W 004°01'0 0.0
2017-Apr-14 01:42N 05°16' W 004°01'0 0.0
2017-Apr-14 01:30N 05°16' W 004°01'0 0.0
2017-Apr-14 01:00N 05°16' W 004°01'0 0.0
2017-Apr-14 00:30N 05°16' W 004°01'0 0.0
2017-Apr-14 00:00N 05°16' W 004°01'0 0.0
2017-Apr-13 23:24N 05°16' W 004°01'0 0.0
2017-Apr-13 23:00N 05°16' W 004°01'0 0.0
2017-Apr-13 22:30N 05°16' W 004°01'0 0.0
2017-Apr-13 22:00N 05°16' W 004°01'0 0.0
2017-Apr-13 21:24N 05°16' W 004°01'0 0.0
2017-Apr-13 20:54N 05°16' W 004°01'0 0.0
2017-Apr-13 20:18N 05°16' W 004°01'0 0.0
2017-Apr-13 19:48N 05°16' W 004°01'0 0.0
2017-Apr-13 19:24N 05°16' W 004°01'0 0.0
2017-Apr-13 19:00N 05°16' W 004°01'0 0.0
2017-Apr-13 16:30N 05°16' W 004°01'0 0.0
2017-Apr-13 16:00N 05°16' W 004°01'0 0.0
2017-Apr-13 15:24N 05°16' W 004°01'0 0.0
2017-Apr-13 14:06N 05°16' W 004°01'0 0.0
2017-Apr-13 13:12N 05°16' W 004°01'0 0.0
2017-Apr-13 12:06N 05°16' W 004°01'0 0.0
2017-Apr-13 11:48N 05°16' W 004°01'0 0.0
2017-Apr-13 11:18N 05°16' W 004°01'  
Track history (hours):
 
Tides and Currents Weather Stations Pressure Air Temp Water Temp Dewpoint Dewpoint Depression Visibility Wind Speed Wind Dir Waves Ship Positions

Butterfly

Last reported at 2017-Apr-23 09:19 UTC. Time now 2017-Apr-25 10:42 UTC.
Position N 28°44' W 014°32'.

Length 182 m; draft 7.3 m.

Type: Ship. MMSI: 311985000.

Date/timePositionNaut miles runAvg speedWind from/ knotsBaromVisibWave heightAir tempDewpointWater temp
2017-Apr-23 09:19N 28°44' W 014°32'512.3
2017-Apr-23 08:56N 28°40' W 014°35'512.3
2017-Apr-23 08:30N 28°35' W 014°38'612.1
2017-Apr-23 08:00N 28°30' W 014°42'612.1
2017-Apr-23 07:30N 28°25' W 014°46'611.7
2017-Apr-23 07:00N 28°20' W 014°50'612.0
2017-Apr-23 06:30N 28°15' W 014°52'612.3
2017-Apr-23 06:00N 28°09' W 014°54'612.1
2017-Apr-23 05:30N 28°03' W 014°57'612.0
2017-Apr-23 05:00N 27°58' W 014°59'612.0
2017-Apr-23 04:30N 27°52' W 015°01'611.7
2017-Apr-23 04:01N 27°46' W 015°03'611.3
2017-Apr-23 03:30N 27°41' W 015°05'611.6
2017-Apr-23 03:01N 27°35' W 015°06'611.8
2017-Apr-23 02:30N 27°30' W 015°08'611.6
2017-Apr-23 01:59N 27°24' W 015°10'  
2017-Apr-20 01:21N 13°14' W 017°60'16812.5
2017-Apr-19 11:51N 10°26' W 017°56'512.8
2017-Apr-19 11:29N 10°22' W 017°54'612.7
2017-Apr-19 11:00N 10°17' W 017°50'712.8
2017-Apr-19 10:26N 10°12' W 017°45'613.1
2017-Apr-19 09:59N 10°07' W 017°41'813.0
2017-Apr-19 09:20N 10°01' W 017°36'612.9
2017-Apr-19 08:52N 09°56' W 017°32'2312.8
2017-Apr-19 07:05N 09°38' W 017°17'412.5
2017-Apr-19 06:44N 09°35' W 017°15'312.6
2017-Apr-19 06:28N 09°32' W 017°12'612.6
2017-Apr-19 06:00N 09°28' W 017°08'612.5
2017-Apr-19 05:31N 09°23' W 017°04'612.3
2017-Apr-19 05:00N 09°18' W 017°01'612.4
2017-Apr-19 04:31N 09°13' W 016°57'612.5
2017-Apr-19 04:01N 09°08' W 016°53'612.7
2017-Apr-19 03:31N 09°03' W 016°49'612.7
2017-Apr-19 03:00N 08°58' W 016°45'612.9
2017-Apr-19 02:31N 08°53' W 016°41'712.6
2017-Apr-19 01:58N 08°48' W 016°36'812.6
2017-Apr-19 01:22N 08°42' W 016°32'612.8
2017-Apr-19 00:56N 08°38' W 016°28'512.8
2017-Apr-19 00:31N 08°34' W 016°25'612.7
2017-Apr-19 00:01N 08°29' W 016°21'612.7
2017-Apr-18 23:30N 08°24' W 016°17'712.6
2017-Apr-18 22:57N 08°18' W 016°12'512.6
2017-Apr-18 22:30N 08°14' W 016°09'612.6
2017-Apr-18 22:00N 08°09' W 016°05'612.6
2017-Apr-18 21:30N 08°04' W 016°01'712.5
2017-Apr-18 20:59N 07°59' W 015°56'612.6
2017-Apr-18 20:31N 07°54' W 015°53'612.7
2017-Apr-18 20:00N 07°50' W 015°48'612.9
2017-Apr-18 19:31N 07°45' W 015°44'612.9
2017-Apr-18 19:00N 07°40' W 015°40'612.4
2017-Apr-18 18:31N 07°35' W 015°36'612.5
2017-Apr-18 18:00N 07°30' W 015°32'612.2
2017-Apr-18 17:29N 07°25' W 015°28'1112.5
2017-Apr-18 16:36N 07°16' W 015°21'312.2
2017-Apr-18 16:19N 07°14' W 015°19'412.3
2017-Apr-18 16:00N 07°11' W 015°17'612.3
2017-Apr-18 15:30N 07°06' W 015°13'612.1
2017-Apr-18 15:00N 07°01' W 015°09'612.1
2017-Apr-18 14:31N 06°56' W 015°05'1212.2
2017-Apr-18 13:30N 06°48' W 014°56'1312.2
2017-Apr-18 12:26N 06°41' W 014°45'1512.5
2017-Apr-18 11:14N 06°33' W 014°33'612.5
2017-Apr-18 10:45N 06°29' W 014°28'4112.5
2017-Apr-18 07:30N 06°07' W 013°53'  
2017-Apr-15 23:06N 05°11' W 004°01'111.8
2017-Apr-15 23:00N 05°12' W 003°60'3 5.7
2017-Apr-15 22:30N 05°15' W 003°60'2 4.8
2017-Apr-15 22:00N 05°16' W 004°02'1 1.9
2017-Apr-15 21:30N 05°16' W 004°01'0 0.0
2017-Apr-15 19:51N 05°16' W 004°01'0 0.0
2017-Apr-15 19:15N 05°16' W 004°01'0 0.0
2017-Apr-15 18:51N 05°16' W 004°01'0 0.0
2017-Apr-15 17:18N 05°16' W 004°01'0 0.0
2017-Apr-15 15:18N 05°16' W 004°01'0 0.0
2017-Apr-15 14:36N 05°16' W 004°01'0 0.0
2017-Apr-15 14:24N 05°16' W 004°01'0 0.0
2017-Apr-15 12:33N 05°16' W 004°01'0 0.0
2017-Apr-15 12:18N 05°16' W 004°01'0 0.0
2017-Apr-15 12:00N 05°16' W 004°01'0 0.0
2017-Apr-15 11:18N 05°16' W 004°01'0 0.0
2017-Apr-15 10:54N 05°16' W 004°01'0 0.0
2017-Apr-15 10:12N 05°16' W 004°01'0 0.0
2017-Apr-15 07:54N 05°16' W 004°01'0 0.0
2017-Apr-15 07:24N 05°16' W 004°01'0 0.0
2017-Apr-15 07:00N 05°16' W 004°01'0 0.0
2017-Apr-15 06:18N 05°16' W 004°01'0 0.0
2017-Apr-15 06:00N 05°16' W 004°01'0 0.0
2017-Apr-15 03:30N 05°16' W 004°01'0 0.0
2017-Apr-15 01:06N 05°16' W 004°01'0 0.0
2017-Apr-15 01:00N 05°16' W 004°01'0 0.0
2017-Apr-15 00:24N 05°16' W 004°01'0 0.0
2017-Apr-14 23:42N 05°16' W 004°01'0 0.0
2017-Apr-14 22:42N 05°16' W 004°01'0 0.0
2017-Apr-14 22:18N 05°16' W 004°01'0 0.0
2017-Apr-14 21:48N 05°16' W 004°01'0 0.0
2017-Apr-14 21:18N 05°16' W 004°01'0 0.0
2017-Apr-14 20:24N 05°16' W 004°01'0 0.0
2017-Apr-14 20:00N 05°16' W 004°01'0 0.0
2017-Apr-14 19:24N 05°16' W 004°01'0 0.0
2017-Apr-14 16:24N 05°16' W 004°01'0 0.0
2017-Apr-14 16:00N 05°16' W 004°01'0 0.0
2017-Apr-14 15:24N 05°16' W 004°01'0 0.0
2017-Apr-14 15:00N 05°16' W 004°01'0 0.0
2017-Apr-14 14:09N 05°16' W 004°01'0 0.0
2017-Apr-14 07:57N 05°16' W 004°01'0 0.0
2017-Apr-14 07:03N 05°16' W 004°01'0 0.0
2017-Apr-14 06:45N 05°16' W 004°01'0 0.0
2017-Apr-14 04:33N 05°16' W 004°01'0 0.0
2017-Apr-14 01:42N 05°16' W 004°01'0 0.0
2017-Apr-14 01:30N 05°16' W 004°01'0 0.0
2017-Apr-14 01:00N 05°16' W 004°01'0 0.0
2017-Apr-14 00:30N 05°16' W 004°01'0 0.0
2017-Apr-14 00:00N 05°16' W 004°01'0 0.0
2017-Apr-13 23:24N 05°16' W 004°01'0 0.0
2017-Apr-13 23:00N 05°16' W 004°01'0 0.0
2017-Apr-13 22:30N 05°16' W 004°01'0 0.0
2017-Apr-13 22:00N 05°16' W 004°01'0 0.0
2017-Apr-13 21:24N 05°16' W 004°01'0 0.0
2017-Apr-13 20:54N 05°16' W 004°01'0 0.0
2017-Apr-13 20:18N 05°16' W 004°01'0 0.0
2017-Apr-13 19:48N 05°16' W 004°01'0 0.0
2017-Apr-13 19:24N 05°16' W 004°01'0 0.0
2017-Apr-13 19:00N 05°16' W 004°01'0 0.0
2017-Apr-13 16:30N 05°16' W 004°01'0 0.0
2017-Apr-13 16:00N 05°16' W 004°01'0 0.0
2017-Apr-13 15:24N 05°16' W 004°01'0 0.0
2017-Apr-13 14:06N 05°16' W 004°01'0 0.0
2017-Apr-13 13:12N 05°16' W 004°01'0 0.0
2017-Apr-13 12:06N 05°16' W 004°01'0 0.0
2017-Apr-13 11:48N 05°16' W 004°01'0 0.0
2017-Apr-13 11:18N 05°16' W 004°01'  

Dump ship's entire track history